createdAt,value
2017-07-22T00:00:11.339Z,0
2017-07-22T00:00:37.487Z,0
2017-07-22T00:01:03.628Z,0
2017-07-22T00:01:29.763Z,0
2017-07-22T00:01:55.920Z,0
2017-07-22T00:02:22.028Z,0
2017-07-22T00:02:48.189Z,0
2017-07-22T00:03:14.344Z,0
2017-07-22T00:03:40.482Z,0
2017-07-22T00:04:06.642Z,0
2017-07-22T00:04:32.775Z,0
2017-07-22T00:04:58.917Z,0
2017-07-22T00:05:25.042Z,0
2017-07-22T00:05:51.162Z,0
2017-07-22T00:06:17.349Z,0
2017-07-22T00:06:43.506Z,0
2017-07-22T00:07:09.644Z,0
2017-07-22T00:07:35.774Z,0
2017-07-22T00:08:01.939Z,0
2017-07-22T00:08:28.048Z,0
2017-07-22T00:08:54.171Z,0
2017-07-22T00:09:20.306Z,0
2017-07-22T00:09:46.474Z,0
2017-07-22T00:10:12.619Z,0
2017-07-22T00:10:38.779Z,0
2017-07-22T00:11:04.873Z,0
2017-07-22T00:11:31.054Z,0
2017-07-22T00:11:57.191Z,0
2017-07-22T00:12:23.315Z,0
2017-07-22T00:12:49.422Z,0
2017-07-22T00:13:15.565Z,0
2017-07-22T00:13:41.686Z,0
2017-07-22T00:14:07.822Z,0
2017-07-22T00:14:33.967Z,0
2017-07-22T00:15:00.085Z,0
2017-07-22T00:15:26.219Z,0
2017-07-22T00:15:52.342Z,0
2017-07-22T00:16:18.458Z,0
2017-07-22T00:16:44.564Z,0
2017-07-22T00:17:10.683Z,0
2017-07-22T00:17:36.818Z,0
2017-07-22T00:18:02.940Z,0
2017-07-22T00:18:29.079Z,0
2017-07-22T00:18:55.217Z,0
2017-07-22T00:19:21.368Z,0
2017-07-22T00:19:47.487Z,0
2017-07-22T00:20:13.624Z,0
2017-07-22T00:20:39.782Z,0
2017-07-22T00:21:05.973Z,0
2017-07-22T00:21:32.076Z,0
2017-07-22T00:21:58.210Z,0
2017-07-22T00:22:24.306Z,0
2017-07-22T00:22:50.432Z,0
2017-07-22T00:23:16.523Z,0
2017-07-22T00:23:42.654Z,0
2017-07-22T00:24:08.810Z,0
2017-07-22T00:24:34.927Z,0
2017-07-22T00:25:01.079Z,0
2017-07-22T00:25:27.239Z,0
2017-07-22T00:25:53.327Z,0
2017-07-22T00:26:19.477Z,0
2017-07-22T00:26:45.584Z,0
2017-07-22T00:27:11.781Z,0
2017-07-22T00:27:37.951Z,0
2017-07-22T00:28:04.076Z,0
2017-07-22T00:28:30.202Z,0
2017-07-22T00:28:56.310Z,0
2017-07-22T00:29:22.450Z,0
2017-07-22T00:29:48.598Z,0
2017-07-22T00:30:14.761Z,0
2017-07-22T00:30:40.883Z,0
2017-07-22T00:31:07.028Z,0
2017-07-22T00:31:33.190Z,0
2017-07-22T00:31:59.365Z,0
2017-07-22T00:32:25.516Z,0
2017-07-22T00:32:51.687Z,0
2017-07-22T00:33:17.856Z,0
2017-07-22T00:33:43.996Z,0
2017-07-22T00:34:10.115Z,0
2017-07-22T00:34:36.255Z,0
2017-07-22T00:35:02.408Z,0
2017-07-22T00:35:28.553Z,0
2017-07-22T00:35:54.693Z,0
2017-07-22T00:36:20.835Z,0
2017-07-22T00:36:46.971Z,0
2017-07-22T00:37:13.087Z,0
2017-07-22T00:37:39.192Z,0
2017-07-22T00:38:05.294Z,0
2017-07-22T00:38:31.382Z,0
2017-07-22T00:38:57.513Z,0
2017-07-22T00:39:23.656Z,0
2017-07-22T00:39:49.767Z,0
2017-07-22T00:40:15.946Z,0
2017-07-22T00:40:42.201Z,0
2017-07-22T00:41:08.371Z,0
2017-07-22T00:41:34.498Z,0
2017-07-22T00:42:00.636Z,0
2017-07-22T00:42:26.761Z,0
2017-07-22T00:42:52.946Z,0
2017-07-22T00:43:19.086Z,0
2017-07-22T00:43:45.234Z,0
2017-07-22T00:44:11.426Z,0
2017-07-22T00:44:37.593Z,0
2017-07-22T00:45:03.713Z,0
2017-07-22T00:45:29.876Z,0
2017-07-22T00:45:56.048Z,0
2017-07-22T00:46:22.166Z,0
2017-07-22T00:46:48.358Z,0
2017-07-22T00:47:14.540Z,0
2017-07-22T00:47:40.678Z,0
2017-07-22T00:48:06.787Z,0
2017-07-22T00:48:32.947Z,0
2017-07-22T00:48:59.059Z,0
2017-07-22T00:49:25.214Z,0
2017-07-22T00:49:51.350Z,0
2017-07-22T00:50:17.519Z,0
2017-07-22T00:50:43.723Z,0
2017-07-22T00:51:09.861Z,0
2017-07-22T00:51:36.071Z,0
2017-07-22T00:52:02.277Z,0
2017-07-22T00:52:28.392Z,0
2017-07-22T00:52:54.549Z,0
2017-07-22T00:53:20.741Z,0
2017-07-22T00:53:46.854Z,0
2017-07-22T00:54:13.107Z,0
2017-07-22T00:54:39.269Z,0
2017-07-22T00:55:05.411Z,0
2017-07-22T00:55:31.532Z,0
2017-07-22T00:55:57.716Z,0
2017-07-22T00:56:23.836Z,0
2017-07-22T00:56:49.946Z,0
2017-07-22T00:57:16.060Z,0
2017-07-22T00:57:42.184Z,0
2017-07-22T00:58:08.363Z,0
2017-07-22T00:58:34.526Z,0
2017-07-22T00:59:00.649Z,0
2017-07-22T00:59:26.829Z,0
2017-07-22T00:59:52.953Z,0
2017-07-22T01:00:19.093Z,0
2017-07-22T01:00:45.243Z,0
2017-07-22T01:01:11.341Z,0
2017-07-22T01:01:37.469Z,0
2017-07-22T01:02:03.614Z,0
2017-07-22T01:02:29.759Z,0
2017-07-22T01:02:55.971Z,0
2017-07-22T01:03:22.101Z,0
2017-07-22T01:03:48.200Z,0
2017-07-22T01:04:14.369Z,0
2017-07-22T01:04:40.498Z,0
2017-07-22T01:05:06.620Z,0
2017-07-22T01:05:32.782Z,0
2017-07-22T01:05:58.956Z,0
2017-07-22T01:06:25.089Z,0
2017-07-22T01:06:51.192Z,0
2017-07-22T01:07:17.360Z,0
2017-07-22T01:07:43.594Z,0
2017-07-22T01:08:09.765Z,0
2017-07-22T01:08:35.931Z,0
2017-07-22T01:09:02.043Z,0
2017-07-22T01:09:28.231Z,0
2017-07-22T01:09:54.342Z,0
2017-07-22T01:10:20.493Z,0
2017-07-22T01:10:46.581Z,0
2017-07-22T01:11:12.697Z,0
2017-07-22T01:11:38.823Z,0
2017-07-22T01:12:04.932Z,0
2017-07-22T01:12:31.071Z,0
2017-07-22T01:12:57.175Z,0
2017-07-22T01:13:23.293Z,0
2017-07-22T01:13:49.426Z,0
2017-07-22T01:14:15.609Z,0
2017-07-22T01:14:41.826Z,0
2017-07-22T01:15:07.949Z,0
2017-07-22T01:15:34.108Z,0
2017-07-22T01:16:00.225Z,0
2017-07-22T01:16:26.371Z,0
2017-07-22T01:16:52.531Z,0
2017-07-22T01:17:18.652Z,0
2017-07-22T01:17:44.793Z,0
2017-07-22T01:18:11.004Z,0
2017-07-22T01:18:37.155Z,0
2017-07-22T01:19:03.291Z,0
2017-07-22T01:19:29.431Z,0
2017-07-22T01:19:55.555Z,0
2017-07-22T01:20:21.717Z,0
2017-07-22T01:20:47.810Z,0
2017-07-22T01:21:13.900Z,0
2017-07-22T01:21:40.034Z,0
2017-07-22T01:22:36.008Z,0
2017-07-22T01:23:02.119Z,0
2017-07-22T01:23:28.244Z,0
2017-07-22T01:23:54.376Z,0
2017-07-22T01:24:20.467Z,0
2017-07-22T01:24:46.651Z,0
2017-07-22T01:25:12.817Z,0
2017-07-22T01:25:38.945Z,0
2017-07-22T01:26:05.136Z,0
2017-07-22T01:26:31.276Z,0
2017-07-22T01:26:57.399Z,0
2017-07-22T01:27:23.591Z,0
2017-07-22T01:27:49.703Z,0
2017-07-22T01:28:15.850Z,0
2017-07-22T01:28:41.982Z,0
2017-07-22T01:29:08.102Z,0
2017-07-22T01:29:34.220Z,0
2017-07-22T01:30:00.354Z,0
2017-07-22T01:30:26.479Z,0
2017-07-22T01:30:52.616Z,0
2017-07-22T01:31:18.723Z,0
2017-07-22T01:31:44.824Z,0
2017-07-22T01:32:10.966Z,0
2017-07-22T01:32:37.069Z,0
2017-07-22T01:33:03.177Z,0
2017-07-22T01:33:29.290Z,0
2017-07-22T01:33:55.442Z,0
2017-07-22T01:34:21.603Z,0
2017-07-22T01:34:47.719Z,0
2017-07-22T01:35:13.839Z,0
2017-07-22T01:35:39.990Z,0
2017-07-22T01:36:06.099Z,0
2017-07-22T01:36:32.257Z,0
2017-07-22T01:36:58.347Z,0
2017-07-22T01:37:24.523Z,0
2017-07-22T01:37:50.629Z,0
2017-07-22T01:38:16.721Z,0
2017-07-22T01:38:42.844Z,0
2017-07-22T01:39:08.979Z,0
2017-07-22T01:39:35.123Z,0
2017-07-22T01:40:01.238Z,0
2017-07-22T01:40:27.399Z,0
2017-07-22T01:40:53.525Z,0
2017-07-22T01:41:19.654Z,0
2017-07-22T01:41:45.844Z,0
2017-07-22T01:42:11.992Z,0
2017-07-22T01:42:38.125Z,0
2017-07-22T01:43:04.219Z,0
2017-07-22T01:43:30.360Z,0
2017-07-22T01:43:56.527Z,0
2017-07-22T01:44:22.676Z,0
2017-07-22T01:44:48.766Z,0
2017-07-22T01:45:14.905Z,0
2017-07-22T01:45:41.055Z,0
2017-07-22T01:46:07.146Z,0
2017-07-22T01:46:33.305Z,0
2017-07-22T01:46:59.421Z,0
2017-07-22T01:47:25.582Z,0
2017-07-22T01:47:51.706Z,0
2017-07-22T01:48:17.846Z,0
2017-07-22T01:48:43.982Z,0
2017-07-22T01:49:10.110Z,0
2017-07-22T01:49:36.202Z,0
2017-07-22T01:50:02.332Z,0
2017-07-22T01:50:28.551Z,0
2017-07-22T01:50:54.691Z,0
2017-07-22T01:51:20.841Z,0
2017-07-22T01:51:46.976Z,0
2017-07-22T01:52:13.142Z,0
2017-07-22T01:52:39.274Z,0
2017-07-22T01:53:05.386Z,0
2017-07-22T01:53:31.521Z,0
2017-07-22T01:53:57.656Z,0
2017-07-22T01:54:23.769Z,0
2017-07-22T01:54:49.918Z,0
2017-07-22T01:55:16.082Z,0
2017-07-22T01:55:42.220Z,0
2017-07-22T01:56:08.315Z,0
2017-07-22T01:56:34.507Z,0
2017-07-22T01:57:00.683Z,0
2017-07-22T01:57:26.823Z,0
2017-07-22T01:57:52.979Z,0
2017-07-22T01:58:19.152Z,0
2017-07-22T01:58:45.288Z,0
2017-07-22T01:59:11.454Z,0
2017-07-22T01:59:37.626Z,0
2017-07-22T02:00:03.760Z,0
2017-07-22T02:00:29.884Z,0
2017-07-22T02:00:55.976Z,0
2017-07-22T02:01:22.142Z,0
2017-07-22T02:01:48.265Z,0
2017-07-22T02:02:14.379Z,0
2017-07-22T02:02:40.839Z,0
2017-07-22T02:03:06.961Z,0
2017-07-22T02:03:33.139Z,0
2017-07-22T02:03:59.254Z,0
2017-07-22T02:04:25.416Z,0
2017-07-22T02:04:51.577Z,0
2017-07-22T02:05:17.754Z,0
2017-07-22T02:05:43.918Z,0
2017-07-22T02:06:10.047Z,0
2017-07-22T02:06:36.228Z,0
2017-07-22T02:07:02.363Z,0
2017-07-22T02:07:28.485Z,0
2017-07-22T02:07:54.703Z,0
2017-07-22T02:08:20.865Z,0
2017-07-22T02:08:47.046Z,0
2017-07-22T02:09:13.184Z,0
2017-07-22T02:09:39.337Z,0
2017-07-22T02:10:05.459Z,0
2017-07-22T02:10:31.656Z,0
2017-07-22T02:10:57.778Z,0
2017-07-22T02:11:23.904Z,0
2017-07-22T02:11:50.037Z,0
2017-07-22T02:12:16.182Z,0
2017-07-22T02:12:42.336Z,0
2017-07-22T02:13:08.473Z,0
2017-07-22T02:13:34.587Z,0
2017-07-22T02:14:00.777Z,0
2017-07-22T02:14:26.893Z,0
2017-07-22T02:14:53.085Z,0
2017-07-22T02:15:19.271Z,0
2017-07-22T02:15:45.422Z,0
2017-07-22T02:16:11.530Z,0
2017-07-22T02:16:37.717Z,0
2017-07-22T02:17:03.894Z,0
2017-07-22T02:17:30.010Z,0
2017-07-22T02:17:56.154Z,0
2017-07-22T02:18:22.348Z,0
2017-07-22T02:18:48.516Z,0
2017-07-22T02:19:14.698Z,0
2017-07-22T02:19:40.827Z,0
2017-07-22T02:20:06.935Z,0
2017-07-22T02:20:33.089Z,0
2017-07-22T02:20:59.255Z,0
2017-07-22T02:21:25.497Z,0
2017-07-22T02:21:51.650Z,0
2017-07-22T02:22:17.845Z,0
2017-07-22T02:22:44.022Z,0
2017-07-22T02:23:10.241Z,0
2017-07-22T02:23:36.377Z,0
2017-07-22T02:24:02.576Z,0
2017-07-22T02:24:28.699Z,0
2017-07-22T02:24:54.815Z,0
2017-07-22T02:25:20.953Z,0
2017-07-22T02:25:47.138Z,0
2017-07-22T02:26:13.285Z,0
2017-07-22T02:26:39.406Z,0
2017-07-22T02:27:05.583Z,0
2017-07-22T02:27:31.759Z,0
2017-07-22T02:27:57.882Z,0
2017-07-22T02:28:24.055Z,0
2017-07-22T02:28:50.197Z,0
2017-07-22T02:29:16.414Z,0
2017-07-22T02:29:42.627Z,0
2017-07-22T02:30:08.848Z,0
2017-07-22T02:30:35.067Z,0
2017-07-22T02:31:01.211Z,0
2017-07-22T02:31:27.437Z,0
2017-07-22T02:31:53.621Z,0
2017-07-22T02:32:19.814Z,0
2017-07-22T02:32:46.004Z,0
2017-07-22T02:33:12.184Z,0
2017-07-22T02:33:38.354Z,0
2017-07-22T02:34:04.508Z,0
2017-07-22T02:34:30.654Z,0
2017-07-22T02:34:56.880Z,0
2017-07-22T02:35:23.062Z,0
2017-07-22T02:35:49.218Z,0
2017-07-22T02:36:15.353Z,0
2017-07-22T02:36:41.619Z,0
2017-07-22T02:37:07.825Z,0
2017-07-22T02:37:34.007Z,0
2017-07-22T02:38:00.156Z,0
2017-07-22T02:38:26.348Z,0
2017-07-22T02:38:52.558Z,0
2017-07-22T02:39:18.714Z,0
2017-07-22T02:39:44.847Z,0
2017-07-22T02:40:11.021Z,0
2017-07-22T02:40:37.150Z,0
2017-07-22T02:41:03.345Z,0
2017-07-22T02:41:29.596Z,0
2017-07-22T02:41:55.752Z,0
2017-07-22T02:42:21.993Z,0
2017-07-22T02:42:48.141Z,0
2017-07-22T02:43:14.248Z,0
2017-07-22T02:43:40.425Z,0
2017-07-22T02:44:06.556Z,0
2017-07-22T02:44:32.756Z,0
2017-07-22T02:44:58.932Z,0
2017-07-22T02:45:25.182Z,0
2017-07-22T02:45:51.324Z,0
2017-07-22T02:46:17.464Z,0
2017-07-22T02:46:43.594Z,0
2017-07-22T02:47:09.775Z,0
2017-07-22T02:47:35.941Z,0
2017-07-22T02:48:02.128Z,0
2017-07-22T02:48:28.245Z,0
2017-07-22T02:48:54.432Z,0
2017-07-22T02:49:20.604Z,0
2017-07-22T02:49:46.802Z,0
2017-07-22T02:50:12.988Z,0
2017-07-22T02:50:39.138Z,0
2017-07-22T02:51:05.300Z,0
2017-07-22T02:51:31.455Z,0
2017-07-22T02:51:57.697Z,0
2017-07-22T02:52:23.922Z,0
2017-07-22T02:52:50.072Z,0
2017-07-22T02:53:16.262Z,0
2017-07-22T02:53:42.462Z,0
2017-07-22T02:54:08.611Z,0
2017-07-22T02:54:34.835Z,0
2017-07-22T02:55:01.082Z,0
2017-07-22T02:55:27.299Z,0
2017-07-22T02:55:53.464Z,0
2017-07-22T02:56:19.673Z,0
2017-07-22T02:56:45.856Z,0
2017-07-22T02:57:12.052Z,0
2017-07-22T02:57:38.228Z,0
2017-07-22T02:58:04.388Z,0
2017-07-22T02:58:30.554Z,0
2017-07-22T02:58:56.758Z,0
2017-07-22T02:59:22.943Z,0
2017-07-22T02:59:49.117Z,0
2017-07-22T03:00:15.287Z,0
2017-07-22T03:00:41.446Z,0
2017-07-22T03:01:07.564Z,0
2017-07-22T03:01:33.759Z,0
2017-07-22T03:01:59.972Z,0
2017-07-22T03:02:26.091Z,0
2017-07-22T03:02:52.200Z,0
2017-07-22T03:03:18.387Z,0
2017-07-22T03:03:44.574Z,0
2017-07-22T03:04:10.709Z,0
2017-07-22T03:04:36.857Z,0
2017-07-22T03:05:03.003Z,0
2017-07-22T03:05:29.129Z,0
2017-07-22T03:05:55.313Z,0
2017-07-22T03:06:21.474Z,0
2017-07-22T03:06:47.655Z,0
2017-07-22T03:07:13.843Z,0
2017-07-22T03:07:40.002Z,0
2017-07-22T03:08:06.206Z,0
2017-07-22T03:08:32.394Z,0
2017-07-22T03:08:58.506Z,0
2017-07-22T03:09:24.674Z,0
2017-07-22T03:09:50.858Z,0
2017-07-22T03:10:16.971Z,0
2017-07-22T03:10:43.155Z,0
2017-07-22T03:11:09.290Z,0
2017-07-22T03:11:35.497Z,0
2017-07-22T03:12:01.713Z,0
2017-07-22T03:12:27.940Z,0
2017-07-22T03:12:54.163Z,0
2017-07-22T03:13:20.354Z,0
2017-07-22T03:13:46.554Z,0
2017-07-22T03:14:12.722Z,0
2017-07-22T03:14:38.877Z,0
2017-07-22T03:15:05.042Z,0
2017-07-22T03:15:31.218Z,0
2017-07-22T03:15:57.367Z,0
2017-07-22T03:16:23.480Z,0
2017-07-22T03:16:49.701Z,0
2017-07-22T03:17:15.845Z,0
2017-07-22T03:17:42.011Z,0
2017-07-22T03:18:08.203Z,0
2017-07-22T03:18:34.378Z,4
2017-07-22T03:19:00.514Z,4
2017-07-22T03:19:26.694Z,4
2017-07-22T03:19:52.878Z,4
2017-07-22T03:20:19.021Z,4
2017-07-22T03:20:45.199Z,4
2017-07-22T03:21:11.387Z,4
2017-07-22T03:21:37.498Z,4
2017-07-22T03:22:03.644Z,4
2017-07-22T03:22:29.842Z,4
2017-07-22T03:22:55.998Z,4
2017-07-22T03:23:22.182Z,0
2017-07-22T03:23:48.323Z,4
2017-07-22T03:24:14.508Z,4
2017-07-22T03:24:40.730Z,4
2017-07-22T03:25:06.977Z,4
2017-07-22T03:25:33.099Z,4
2017-07-22T03:25:59.258Z,4
2017-07-22T03:26:25.453Z,4
2017-07-22T03:26:51.633Z,4
2017-07-22T03:27:17.781Z,8
2017-07-22T03:27:43.927Z,8
2017-07-22T03:28:10.083Z,8
2017-07-22T03:28:36.246Z,8
2017-07-22T03:29:02.392Z,8
2017-07-22T03:29:28.574Z,4
2017-07-22T03:29:54.740Z,4
2017-07-22T03:30:20.910Z,8
2017-07-22T03:30:47.125Z,8
2017-07-22T03:31:13.294Z,8
2017-07-22T03:31:39.461Z,8
2017-07-22T03:32:05.709Z,8
2017-07-22T03:32:31.949Z,8
2017-07-22T03:32:58.156Z,12
2017-07-22T03:33:24.299Z,12
2017-07-22T03:33:50.434Z,12
2017-07-22T03:34:16.579Z,12
2017-07-22T03:34:42.724Z,8
2017-07-22T03:35:08.891Z,12
2017-07-22T03:35:35.050Z,12
2017-07-22T03:36:01.224Z,12
2017-07-22T03:36:27.421Z,12
2017-07-22T03:36:53.577Z,16
2017-07-22T03:37:19.727Z,16
2017-07-22T03:37:45.892Z,16
2017-07-22T03:38:12.077Z,12
2017-07-22T03:38:38.249Z,16
2017-07-22T03:39:04.414Z,16
2017-07-22T03:39:30.528Z,16
2017-07-22T03:39:56.693Z,20
2017-07-22T03:40:22.902Z,20
2017-07-22T03:40:49.024Z,16
2017-07-22T03:41:15.190Z,20
2017-07-22T03:41:41.376Z,20
2017-07-22T03:42:07.558Z,20
2017-07-22T03:42:33.749Z,20
2017-07-22T03:42:59.892Z,20
2017-07-22T03:43:26.073Z,24
2017-07-22T03:43:52.274Z,20
2017-07-22T03:44:18.414Z,24
2017-07-22T03:44:44.537Z,24
2017-07-22T03:45:10.746Z,24
2017-07-22T03:45:36.881Z,24
2017-07-22T03:46:03.038Z,28
2017-07-22T03:46:29.217Z,28
2017-07-22T03:46:55.384Z,28
2017-07-22T03:47:21.539Z,32
2017-07-22T03:47:47.692Z,28
2017-07-22T03:48:13.884Z,28
2017-07-22T03:48:40.037Z,32
2017-07-22T03:49:06.259Z,32
2017-07-22T03:49:32.402Z,36
2017-07-22T03:49:58.608Z,36
2017-07-22T03:50:24.806Z,36
2017-07-22T03:50:50.962Z,40
2017-07-22T03:51:17.113Z,40
2017-07-22T03:51:43.220Z,40
2017-07-22T03:52:09.402Z,40
2017-07-22T03:52:35.529Z,44
2017-07-22T03:53:01.662Z,44
2017-07-22T03:53:27.810Z,44
2017-07-22T03:53:53.932Z,48
2017-07-22T03:54:20.043Z,48
2017-07-22T03:54:46.239Z,52
2017-07-22T03:55:12.453Z,56
2017-07-22T03:55:38.630Z,56
2017-07-22T03:56:04.792Z,60
2017-07-22T03:56:30.930Z,60
2017-07-22T03:56:57.076Z,60
2017-07-22T03:57:23.202Z,60
2017-07-22T03:57:49.311Z,64
2017-07-22T03:58:15.482Z,68
2017-07-22T03:58:41.670Z,68
2017-07-22T03:59:07.817Z,72
2017-07-22T03:59:33.953Z,72
2017-07-22T04:00:00.141Z,72
2017-07-22T04:00:26.319Z,76
2017-07-22T04:00:52.442Z,76
2017-07-22T04:01:18.608Z,80
2017-07-22T04:01:44.781Z,80
2017-07-22T04:02:10.906Z,84
2017-07-22T04:02:37.047Z,84
2017-07-22T04:03:03.242Z,84
2017-07-22T04:03:29.464Z,88
2017-07-22T04:03:55.580Z,88
2017-07-22T04:04:21.771Z,92
2017-07-22T04:04:47.928Z,92
2017-07-22T04:05:14.108Z,96
2017-07-22T04:05:40.268Z,96
2017-07-22T04:06:06.422Z,100
2017-07-22T04:06:32.594Z,104
2017-07-22T04:06:58.815Z,108
2017-07-22T04:07:24.993Z,108
2017-07-22T04:07:51.133Z,112
2017-07-22T04:08:17.315Z,116
2017-07-22T04:08:43.466Z,116
2017-07-22T04:09:09.601Z,120
2017-07-22T04:09:35.754Z,124
2017-07-22T04:10:01.944Z,124
2017-07-22T04:10:28.133Z,128
2017-07-22T04:10:54.305Z,132
2017-07-22T04:11:20.461Z,136
2017-07-22T04:11:46.625Z,136
2017-07-22T04:12:12.779Z,136
2017-07-22T04:12:38.941Z,140
2017-07-22T04:13:05.094Z,140
2017-07-22T04:13:31.315Z,144
2017-07-22T04:13:57.447Z,148
2017-07-22T04:14:23.569Z,148
2017-07-22T04:14:49.722Z,148
2017-07-22T04:15:15.893Z,152
2017-07-22T04:15:42.008Z,152
2017-07-22T04:16:08.131Z,156
2017-07-22T04:16:34.273Z,156
2017-07-22T04:17:00.415Z,156
2017-07-22T04:17:26.566Z,160
2017-07-22T04:17:52.713Z,164
2017-07-22T04:18:18.909Z,168
2017-07-22T04:18:45.016Z,172
2017-07-22T04:19:11.218Z,176
2017-07-22T04:19:37.381Z,180
2017-07-22T04:20:03.495Z,184
2017-07-22T04:20:29.664Z,192
2017-07-22T04:20:55.856Z,196
2017-07-22T04:21:22.005Z,200
2017-07-22T04:21:48.143Z,204
2017-07-22T04:22:14.328Z,212
2017-07-22T04:22:40.482Z,216
2017-07-22T04:23:06.632Z,220
2017-07-22T04:23:32.809Z,224
2017-07-22T04:23:58.972Z,232
2017-07-22T04:24:25.197Z,236
2017-07-22T04:24:51.340Z,240
2017-07-22T04:25:17.508Z,244
2017-07-22T04:25:43.669Z,248
2017-07-22T04:26:09.789Z,252
2017-07-22T04:26:35.920Z,260
2017-07-22T04:27:02.040Z,264
2017-07-22T04:27:28.227Z,268
2017-07-22T04:27:54.333Z,276
2017-07-22T04:28:20.510Z,280
2017-07-22T04:28:46.639Z,284
2017-07-22T04:29:12.808Z,288
2017-07-22T04:29:38.953Z,292
2017-07-22T04:30:05.079Z,296
2017-07-22T04:30:31.289Z,300
2017-07-22T04:30:57.454Z,308
2017-07-22T04:31:23.609Z,308
2017-07-22T04:31:49.782Z,312
2017-07-22T04:32:15.945Z,316
2017-07-22T04:32:42.099Z,320
2017-07-22T04:33:08.277Z,324
2017-07-22T04:33:34.382Z,328
2017-07-22T04:34:00.534Z,328
2017-07-22T04:34:26.706Z,336
2017-07-22T04:34:52.892Z,336
2017-07-22T04:35:19.009Z,344
2017-07-22T04:35:45.145Z,344
2017-07-22T04:36:11.301Z,348
2017-07-22T04:36:37.449Z,352
2017-07-22T04:37:03.589Z,352
2017-07-22T04:37:29.760Z,352
2017-07-22T04:37:55.920Z,356
2017-07-22T04:38:22.051Z,356
2017-07-22T04:38:48.202Z,360
2017-07-22T04:39:14.358Z,360
2017-07-22T04:39:40.464Z,360
2017-07-22T04:40:06.586Z,360
2017-07-22T04:40:32.754Z,360
2017-07-22T04:40:58.933Z,360
2017-07-22T04:41:25.121Z,364
2017-07-22T04:41:51.256Z,360
2017-07-22T04:42:17.460Z,364
2017-07-22T04:42:43.616Z,364
2017-07-22T04:43:09.725Z,368
2017-07-22T04:43:35.873Z,368
2017-07-22T04:44:02.028Z,372
2017-07-22T04:44:28.268Z,376
2017-07-22T04:44:54.486Z,376
2017-07-22T04:45:20.636Z,380
2017-07-22T04:45:46.787Z,380
2017-07-22T04:46:12.970Z,384
2017-07-22T04:46:39.114Z,388
2017-07-22T04:47:05.234Z,388
2017-07-22T04:47:31.437Z,392
2017-07-22T04:47:57.600Z,400
2017-07-22T04:48:23.834Z,400
2017-07-22T04:48:49.992Z,408
2017-07-22T04:49:16.173Z,412
2017-07-22T04:49:42.388Z,416
2017-07-22T04:50:08.546Z,424
2017-07-22T04:50:34.721Z,436
2017-07-22T04:51:00.862Z,440
2017-07-22T04:51:27.012Z,448
2017-07-22T04:51:53.199Z,456
2017-07-22T04:52:19.369Z,468
2017-07-22T04:52:45.572Z,476
2017-07-22T04:53:11.698Z,484
2017-07-22T04:53:37.834Z,496
2017-07-22T04:54:04.002Z,508
2017-07-22T04:54:30.158Z,524
2017-07-22T04:54:56.303Z,536
2017-07-22T04:55:22.437Z,552
2017-07-22T04:55:48.600Z,564
2017-07-22T04:56:14.749Z,584
2017-07-22T04:56:40.963Z,600
2017-07-22T04:57:07.072Z,612
2017-07-22T04:57:33.192Z,632
2017-07-22T04:57:59.341Z,648
2017-07-22T04:58:25.457Z,672
2017-07-22T04:58:51.674Z,688
2017-07-22T04:59:17.894Z,708
2017-07-22T04:59:44.039Z,728
2017-07-22T05:00:10.175Z,748
2017-07-22T05:00:36.332Z,768
2017-07-22T05:01:02.483Z,784
2017-07-22T05:01:28.673Z,800
2017-07-22T05:01:54.821Z,820
2017-07-22T05:02:20.990Z,840
2017-07-22T05:02:47.117Z,852
2017-07-22T05:03:13.267Z,868
2017-07-22T05:03:39.402Z,888
2017-07-22T05:04:05.556Z,900
2017-07-22T05:04:31.738Z,912
2017-07-22T05:04:57.877Z,924
2017-07-22T05:05:24.022Z,932
2017-07-22T05:05:50.271Z,936
2017-07-22T05:06:16.377Z,944
2017-07-22T05:06:42.521Z,948
2017-07-22T05:07:08.679Z,952
2017-07-22T05:07:34.815Z,956
2017-07-22T05:08:00.996Z,956
2017-07-22T05:08:27.109Z,956
2017-07-22T05:08:53.291Z,956
2017-07-22T05:09:19.453Z,956
2017-07-22T05:09:45.609Z,956
2017-07-22T05:10:11.752Z,952
2017-07-22T05:10:37.913Z,952
2017-07-22T05:11:04.022Z,948
2017-07-22T05:11:30.196Z,944
2017-07-22T05:11:56.355Z,944
2017-07-22T05:12:22.529Z,944
2017-07-22T05:12:48.694Z,944
2017-07-22T05:13:14.849Z,940
2017-07-22T05:13:40.995Z,944
2017-07-22T05:14:07.137Z,944
2017-07-22T05:14:33.259Z,944
2017-07-22T05:14:59.377Z,940
2017-07-22T05:15:25.518Z,940
2017-07-22T05:15:51.696Z,944
2017-07-22T05:16:17.823Z,940
2017-07-22T05:16:43.987Z,936
2017-07-22T05:17:10.136Z,932
2017-07-22T05:17:36.296Z,928
2017-07-22T05:18:02.405Z,928
2017-07-22T05:18:28.607Z,924
2017-07-22T05:18:54.753Z,920
2017-07-22T05:19:20.907Z,924
2017-07-22T05:19:47.066Z,932
2017-07-22T05:20:13.232Z,936
2017-07-22T05:20:39.377Z,940
2017-07-22T05:21:05.557Z,952
2017-07-22T05:21:31.696Z,960
2017-07-22T05:21:57.812Z,968
2017-07-22T05:22:23.968Z,984
2017-07-22T05:22:50.108Z,996
2017-07-22T05:23:16.245Z,1016
2017-07-22T05:23:42.401Z,1040
2017-07-22T05:24:08.547Z,1064
2017-07-22T05:24:34.719Z,1092
2017-07-22T05:25:00.857Z,1128
2017-07-22T05:25:27.000Z,1172
2017-07-22T05:25:53.190Z,1216
2017-07-22T05:26:19.328Z,1272
2017-07-22T05:26:45.439Z,1324
2017-07-22T05:27:11.659Z,1380
2017-07-22T05:27:37.824Z,1428
2017-07-22T05:28:03.944Z,1480
2017-07-22T05:28:30.127Z,1532
2017-07-22T05:28:56.309Z,1576
2017-07-22T05:29:22.475Z,1620
2017-07-22T05:29:48.633Z,1668
2017-07-22T05:30:14.806Z,1720
2017-07-22T05:30:40.965Z,1772
2017-07-22T05:31:07.113Z,1832
2017-07-22T05:31:33.255Z,1896
2017-07-22T05:31:59.379Z,1968
2017-07-22T05:32:25.503Z,2036
2017-07-22T05:32:51.610Z,2108
2017-07-22T05:33:17.763Z,2176
2017-07-22T05:33:43.950Z,2232
2017-07-22T05:34:10.145Z,2272
2017-07-22T05:34:36.293Z,2312
2017-07-22T05:35:02.446Z,2336
2017-07-22T05:35:28.557Z,2356
2017-07-22T05:35:54.770Z,2364
2017-07-22T05:36:20.970Z,2368
2017-07-22T05:36:47.154Z,2360
2017-07-22T05:37:13.280Z,2348
2017-07-22T05:37:39.388Z,2344
2017-07-22T05:38:05.506Z,2356
2017-07-22T05:38:31.788Z,2380
2017-07-22T05:38:57.961Z,2416
2017-07-22T05:39:24.135Z,2468
2017-07-22T05:39:50.318Z,2544
2017-07-22T05:40:16.495Z,2632
2017-07-22T05:40:42.663Z,2728
2017-07-22T05:41:08.816Z,2828
2017-07-22T05:41:34.934Z,2928
2017-07-22T05:42:01.092Z,3032
2017-07-22T05:42:27.203Z,3132
2017-07-22T05:42:53.346Z,3224
2017-07-22T05:43:19.469Z,3316
2017-07-22T05:43:45.608Z,3408
2017-07-22T05:44:11.721Z,3496
2017-07-22T05:44:37.846Z,3588
2017-07-22T05:45:03.965Z,3688
2017-07-22T05:45:30.100Z,3788
2017-07-22T05:45:56.256Z,3900
2017-07-22T05:46:22.436Z,4008
2017-07-22T05:46:48.585Z,4128
2017-07-22T05:47:14.756Z,4240
2017-07-22T05:47:40.925Z,4356
2017-07-22T05:48:07.083Z,4476
2017-07-22T05:48:33.261Z,4608
2017-07-22T05:48:59.397Z,4732
2017-07-22T05:49:25.523Z,4848
2017-07-22T05:49:51.671Z,4960
2017-07-22T05:50:17.836Z,5064
2017-07-22T05:50:43.993Z,5176
2017-07-22T05:51:10.176Z,5296
2017-07-22T05:51:36.317Z,5432
2017-07-22T05:52:02.488Z,5568
2017-07-22T05:52:28.668Z,5708
2017-07-22T05:52:54.826Z,5844
2017-07-22T05:53:21.040Z,5968
2017-07-22T05:53:47.205Z,6072
2017-07-22T05:54:13.331Z,6172
2017-07-22T05:54:39.522Z,6252
2017-07-22T05:55:05.632Z,6308
2017-07-22T05:55:31.782Z,6356
2017-07-22T05:55:57.972Z,6396
2017-07-22T05:56:24.111Z,6424
2017-07-22T05:56:50.283Z,6448
2017-07-22T05:57:16.408Z,6456
2017-07-22T05:57:42.518Z,6452
2017-07-22T05:58:08.632Z,6436
2017-07-22T05:58:34.763Z,6404
2017-07-22T05:59:00.910Z,6376
2017-07-22T05:59:27.081Z,6340
2017-07-22T05:59:53.206Z,6296
2017-07-22T06:00:19.328Z,6256
2017-07-22T06:00:45.437Z,6228
2017-07-22T06:01:11.588Z,6204
2017-07-22T06:01:37.776Z,6192
2017-07-22T06:02:03.940Z,6184
2017-07-22T06:02:30.144Z,6184
2017-07-22T06:02:56.363Z,6196
2017-07-22T06:03:22.506Z,6224
2017-07-22T06:03:48.628Z,6284
2017-07-22T06:04:14.735Z,6372
2017-07-22T06:04:40.855Z,6492
2017-07-22T06:05:07.011Z,6648
2017-07-22T06:05:33.143Z,6836
2017-07-22T06:05:59.264Z,7048
2017-07-22T06:06:25.418Z,7272
2017-07-22T06:06:51.557Z,7472
2017-07-22T06:07:17.725Z,7652
2017-07-22T06:07:43.947Z,7792
2017-07-22T06:08:10.125Z,7920
2017-07-22T06:08:36.238Z,8020
2017-07-22T06:09:02.357Z,8100
2017-07-22T06:09:28.535Z,8168
2017-07-22T06:09:54.719Z,8232
2017-07-22T06:10:20.912Z,8340
2017-07-22T06:10:47.088Z,8476
2017-07-22T06:11:13.279Z,8660
2017-07-22T06:11:39.393Z,8868
2017-07-22T06:12:05.565Z,9088
2017-07-22T06:12:31.826Z,9300
2017-07-22T06:12:57.972Z,9484
2017-07-22T06:13:24.122Z,9648
2017-07-22T06:13:50.234Z,9772
2017-07-22T06:14:16.448Z,9872
2017-07-22T06:14:42.594Z,10008